Pagrindinis puslapis
METAR-TAF:

METAR-TAF

Oro uostai :

Tallahassee Regional Airport

Talahasis, Florida, Jungtinės Amerikos Valstijos

platuma: 30-23-35N, ilguma: 084-21-12W, Aukštis: 24 m

Dabartinis oras

Ataskaita buvo paskelbta 1 valandą ir 7 minutes, ne 16:53 UTC
Vėjas 6 kt nuo kintamojo kryptimis
Temperatūra 21°C
Drėgmė 40%
Slėgis 1015 hPa
Matomumas: 16.1 km
Apsiniaukę ne aukštis 20000 ft

METAR: KTLH 171653Z VRB06KT 10SM OVC200 21/07 A2998 RMK AO2 SLP152 T02060067

Laikas: 14:00 (18:00 UTC)

Prognozė

Ataskaita buvo paskelbta 40 minutes, ne 17:20 UTC
Prognozė galioja nuo 17 metu 18 UTC su 18 metu 18 UTC
Vėjas 4 kt iš Šiaurės/Šiaurės Vakarų
Matomumas: 10 km
Išsisklaidę debesys ne aukštis 25000 ft
Nuo 18 metu 1100 UTC
Vėjas 4 kt iš Rytų/Šiaurės Rytų
Matomumas: 10 km
Su prošvaistėmis ne aukštis 25000 ft

TAF: KTLH 171720Z 1718/1818 34004KT P6SM SCT250 FM181100 06004KT P6SM BKN250

Orai ataskaitas ir orų prognozės (METAR, TAF).

turimą stotys yra geltonos ir raudonos taškus žemėlapyje.

Perkelti pele per norėdami pamatyti stoties vardą.

Tada spustelėkite, norėdami matyti oro stebėjimo ir prognozės.

Norėdami pakeisti žemėlapį: spustelėkite ant žalios mygtukų su juodo kryžiaus žemyn,; žalią mygtuką su brūkšneliu, jei norite nutolinti; arba žalių rodyklių gretimoms žemėlapius.


METAR-TAF: